createdAt,value
2022-08-26T00:00:11.179Z,4.38
2022-08-26T00:03:00.902Z,4.78
2022-08-26T00:05:51.207Z,5.88
2022-08-26T00:08:40.353Z,4.82
2022-08-26T00:11:29.208Z,4.70
2022-08-26T00:14:17.358Z,5.07
2022-08-26T00:17:05.267Z,4.50
2022-08-26T00:19:56.194Z,5.38
2022-08-26T00:22:43.818Z,5.18
2022-08-26T00:25:31.895Z,4.82
2022-08-26T00:28:20.713Z,4.75
2022-08-26T00:31:11.142Z,4.80
2022-08-26T00:33:59.572Z,4.70
2022-08-26T00:36:49.355Z,4.93
2022-08-26T00:39:39.917Z,4.68
2022-08-26T00:42:27.767Z,4.38
2022-08-26T00:45:17.079Z,4.30
2022-08-26T00:48:07.382Z,4.05
2022-08-26T00:51:20.135Z,5.43
2022-08-26T00:54:10.703Z,4.35
2022-08-26T00:57:04.989Z,4.10
2022-08-26T01:00:06.239Z,4.30
2022-08-26T01:02:56.517Z,4.97
2022-08-26T01:05:47.068Z,4.75
2022-08-26T01:08:35.274Z,4.22
2022-08-26T01:11:23.247Z,4.82
2022-08-26T01:14:12.593Z,4.03
2022-08-26T01:17:05.113Z,4.22
2022-08-26T01:20:12.777Z,4.00
2022-08-26T01:23:06.594Z,4.22
2022-08-26T01:26:05.067Z,3.72
2022-08-26T01:28:56.732Z,3.78
2022-08-26T01:31:49.835Z,4.10
2022-08-26T01:34:41.209Z,4.78
2022-08-26T01:37:36.807Z,4.55
2022-08-26T01:40:33.973Z,4.32
2022-08-26T01:43:27.352Z,3.70
2022-08-26T01:46:17.676Z,3.95
2022-08-26T01:49:08.470Z,4.63
2022-08-26T01:51:58.753Z,5.07
2022-08-26T01:54:50.539Z,4.07
2022-08-26T01:57:40.500Z,4.20
2022-08-26T02:00:30.477Z,3.38
2022-08-26T02:03:22.456Z,4.35
2022-08-26T02:06:10.452Z,3.60
2022-08-26T02:09:03.830Z,3.83
2022-08-26T02:11:52.599Z,4.85
2022-08-26T02:14:50.228Z,4.93
2022-08-26T02:17:46.817Z,4.60
2022-08-26T02:20:35.152Z,3.63
2022-08-26T02:23:24.354Z,3.90
2022-08-26T02:26:21.648Z,4.03
2022-08-26T02:29:33.347Z,5.03
2022-08-26T02:32:20.877Z,5.55
2022-08-26T02:35:12.051Z,4.93
2022-08-26T02:38:00.690Z,4.22
2022-08-26T02:40:48.262Z,4.72
2022-08-26T02:43:36.693Z,4.55
2022-08-26T02:46:27.818Z,4.85
2022-08-26T02:49:17.412Z,4.55
2022-08-26T02:52:05.449Z,3.85
2022-08-26T02:54:53.578Z,3.92
2022-08-26T02:57:41.092Z,3.70
2022-08-26T03:00:30.601Z,4.00
2022-08-26T03:03:18.153Z,4.85
2022-08-26T03:06:06.407Z,3.65
2022-08-26T03:08:55.918Z,4.22
2022-08-26T03:11:43.422Z,4.10
2022-08-26T03:14:31.209Z,5.18
2022-08-26T03:17:18.692Z,4.55
2022-08-26T03:20:10.757Z,5.80
2022-08-26T03:23:01.284Z,4.40
2022-08-26T03:25:54.107Z,4.95
2022-08-26T03:29:01.646Z,4.65
2022-08-26T03:31:50.037Z,3.63
2022-08-26T03:34:37.826Z,4.03
2022-08-26T03:37:26.481Z,4.18
2022-08-26T03:40:15.357Z,3.92
2022-08-26T03:43:10.254Z,4.45
2022-08-26T03:45:58.133Z,3.80
2022-08-26T03:48:45.913Z,4.25
2022-08-26T03:51:38.716Z,4.75
2022-08-26T03:54:27.071Z,3.85
2022-08-26T03:57:14.536Z,3.88
2022-08-26T04:00:09.270Z,4.18
2022-08-26T04:02:57.388Z,3.38
2022-08-26T04:05:45.476Z,5.07
2022-08-26T04:08:33.549Z,4.53
2022-08-26T04:11:24.883Z,4.40
2022-08-26T04:14:20.040Z,4.95
2022-08-26T04:17:07.936Z,4.55
2022-08-26T04:19:55.582Z,4.82
2022-08-26T04:22:43.362Z,5.50
2022-08-26T04:25:30.953Z,4.45
2022-08-26T04:28:18.469Z,5.00
2022-08-26T04:31:08.079Z,4.07
2022-08-26T04:33:56.752Z,4.45
2022-08-26T04:36:45.112Z,4.13
2022-08-26T04:39:33.267Z,4.38
2022-08-26T04:42:25.902Z,4.10
2022-08-26T04:45:14.433Z,5.07
2022-08-26T04:48:01.982Z,4.40
2022-08-26T04:50:51.787Z,4.07
2022-08-26T04:53:39.287Z,3.95
2022-08-26T04:56:34.118Z,4.43
2022-08-26T04:59:21.655Z,4.65
2022-08-26T05:02:09.402Z,5.13
2022-08-26T05:04:57.437Z,4.88
2022-08-26T05:07:44.990Z,5.20
2022-08-26T05:10:34.711Z,5.15
2022-08-26T05:13:29.137Z,5.13
2022-08-26T05:16:17.808Z,5.20
2022-08-26T05:19:06.982Z,5.10
2022-08-26T05:21:56.263Z,5.93
2022-08-26T05:24:44.353Z,5.43
2022-08-26T05:27:31.898Z,5.60
2022-08-26T05:30:20.695Z,4.85
2022-08-26T05:33:10.285Z,5.50
2022-08-26T05:35:57.894Z,4.82
2022-08-26T05:38:46.343Z,5.38
2022-08-26T05:41:39.722Z,5.07
2022-08-26T05:44:27.232Z,4.45
2022-08-26T05:47:14.733Z,5.90
2022-08-26T05:50:05.571Z,4.90
2022-08-26T05:52:53.177Z,5.43
2022-08-26T05:55:53.153Z,5.78
2022-08-26T05:58:42.422Z,4.65
2022-08-26T06:01:35.727Z,4.85
2022-08-26T06:04:26.779Z,5.05
2022-08-26T06:07:17.262Z,4.47
2022-08-26T06:10:31.113Z,3.92
2022-08-26T06:13:15.496Z,5.05
2022-08-26T06:16:12.538Z,4.22
2022-08-26T06:19:02.722Z,5.25
2022-08-26T06:21:54.044Z,4.32
2022-08-26T06:25:01.112Z,4.85
2022-08-26T06:27:49.011Z,5.47
2022-08-26T06:30:41.736Z,5.18
2022-08-26T06:33:31.360Z,5.60
2022-08-26T06:36:23.656Z,5.03
2022-08-26T06:39:15.232Z,5.47
2022-08-26T06:42:03.376Z,5.88
2022-08-26T06:44:54.258Z,6.00
2022-08-26T06:47:41.962Z,5.63
2022-08-26T06:50:29.964Z,5.25
2022-08-26T06:53:17.613Z,6.15
2022-08-26T06:56:09.623Z,4.13
2022-08-26T06:58:57.127Z,5.07
2022-08-26T07:01:45.394Z,4.40
2022-08-26T07:04:34.732Z,4.10
2022-08-26T07:07:23.403Z,4.03
2022-08-26T07:10:12.419Z,4.25
2022-08-26T07:13:01.048Z,4.93
2022-08-26T07:15:49.673Z,4.47
2022-08-26T07:18:45.904Z,4.38
2022-08-26T07:21:34.113Z,5.07
2022-08-26T07:24:21.614Z,5.65
2022-08-26T07:27:15.136Z,4.97
2022-08-26T07:30:06.694Z,5.28
2022-08-26T07:32:58.157Z,5.15
2022-08-26T07:35:46.282Z,6.07
2022-08-26T07:38:35.178Z,5.45
2022-08-26T07:41:25.603Z,6.22
2022-08-26T07:44:15.637Z,6.35
2022-08-26T07:47:10.472Z,5.72
2022-08-26T07:50:12.291Z,5.20
2022-08-26T07:53:02.060Z,4.68
2022-08-26T07:55:50.564Z,4.80
2022-08-26T07:58:38.692Z,5.03
2022-08-26T08:01:27.178Z,4.82
2022-08-26T08:04:21.887Z,5.10
2022-08-26T08:07:13.858Z,4.07
2022-08-26T08:10:01.805Z,4.55
2022-08-26T08:12:53.008Z,4.50
2022-08-26T08:15:40.590Z,4.53
2022-08-26T08:18:30.072Z,4.97
2022-08-26T08:21:21.344Z,4.20
2022-08-26T08:24:11.414Z,3.88
2022-08-26T08:27:00.906Z,3.90
2022-08-26T08:29:48.407Z,5.38
2022-08-26T08:32:40.306Z,4.75
2022-08-26T08:35:28.002Z,4.53
2022-08-26T08:38:17.482Z,3.85
2022-08-26T08:41:05.519Z,4.15
2022-08-26T08:43:54.937Z,4.20
2022-08-26T08:46:44.493Z,3.70
2022-08-26T08:49:34.653Z,4.35
2022-08-26T08:52:30.813Z,3.90
2022-08-26T08:55:18.816Z,4.20
2022-08-26T08:58:16.126Z,4.68
2022-08-26T09:01:18.735Z,4.68
2022-08-26T09:04:25.031Z,4.03
2022-08-26T09:07:48.171Z,4.22
2022-08-26T09:10:40.602Z,3.35
2022-08-26T09:13:31.782Z,4.35
2022-08-26T09:16:41.684Z,4.50
2022-08-26T09:19:53.491Z,4.35
2022-08-26T09:22:44.280Z,4.15
2022-08-26T09:25:32.007Z,3.40
2022-08-26T09:28:25.337Z,4.10
2022-08-26T09:31:23.655Z,3.97
2022-08-26T09:34:17.521Z,4.07
2022-08-26T09:37:05.883Z,4.05
2022-08-26T09:39:53.428Z,3.78
2022-08-26T09:42:40.997Z,3.78
2022-08-26T09:45:30.739Z,4.18
2022-08-26T09:48:36.301Z,4.07
2022-08-26T09:51:33.952Z,4.38
2022-08-26T09:54:30.165Z,3.25
2022-08-26T09:57:29.272Z,3.53
2022-08-26T10:00:56.717Z,3.88
2022-08-26T10:03:47.098Z,3.65
2022-08-26T10:07:04.998Z,4.75
2022-08-26T10:09:53.227Z,4.30
2022-08-26T10:12:59.404Z,4.00
2022-08-26T10:16:00.695Z,5.68
2022-08-26T10:19:10.011Z,5.88
2022-08-26T10:22:02.473Z,5.07
2022-08-26T10:24:57.687Z,6.45
2022-08-26T10:28:40.486Z,4.72
2022-08-26T10:31:40.973Z,5.00
2022-08-26T10:34:28.956Z,5.85
2022-08-26T10:37:28.052Z,5.75
2022-08-26T10:40:18.426Z,5.15
2022-08-26T10:43:29.841Z,5.82
2022-08-26T10:46:27.195Z,4.80
2022-08-26T10:49:18.150Z,4.72
2022-08-26T10:52:33.017Z,4.65
2022-08-26T10:56:01.217Z,5.47
2022-08-26T10:59:35.158Z,4.30
2022-08-26T11:02:48.306Z,4.88
2022-08-26T11:05:35.988Z,5.07
2022-08-26T11:08:23.417Z,16.27
2022-08-26T11:11:11.797Z,11.95
2022-08-26T11:14:28.729Z,4.95
2022-08-26T11:17:46.388Z,5.25
2022-08-26T11:20:41.881Z,3.78
2022-08-26T11:23:29.708Z,3.95
2022-08-26T11:26:32.759Z,4.10
2022-08-26T11:30:06.412Z,4.40
2022-08-26T11:32:58.552Z,4.43
2022-08-26T11:35:49.477Z,4.00
2022-08-26T11:38:43.423Z,3.72
2022-08-26T11:41:33.573Z,3.22
2022-08-26T11:44:29.437Z,3.38
2022-08-26T11:47:27.292Z,4.30
2022-08-26T11:50:26.386Z,3.92
2022-08-26T11:53:19.182Z,4.05
2022-08-26T11:56:16.068Z,4.35
2022-08-26T11:59:11.987Z,4.18
2022-08-26T12:02:01.168Z,4.35
2022-08-26T12:04:51.807Z,4.10
2022-08-26T12:07:42.598Z,3.90
2022-08-26T12:10:34.798Z,3.97
2022-08-26T12:13:27.872Z,4.20
2022-08-26T12:16:29.554Z,3.78
2022-08-26T12:19:32.823Z,4.30
2022-08-26T12:22:34.587Z,4.65
2022-08-26T12:25:25.227Z,4.68
2022-08-26T12:28:13.682Z,4.18
2022-08-26T12:31:06.932Z,4.20
2022-08-26T12:33:57.253Z,3.95
2022-08-26T12:36:53.942Z,4.93
2022-08-26T12:39:45.017Z,3.70
2022-08-26T12:42:42.662Z,4.03
2022-08-26T12:45:44.259Z,3.53
2022-08-26T12:48:36.538Z,4.53
2022-08-26T12:51:34.927Z,3.47
2022-08-26T12:54:42.426Z,3.60
2022-08-26T12:57:38.997Z,3.53
2022-08-26T13:00:42.326Z,3.90
2022-08-26T13:03:43.604Z,3.50
2022-08-26T13:06:31.582Z,4.05
2022-08-26T13:09:19.262Z,4.38
2022-08-26T13:12:06.993Z,3.42
2022-08-26T13:14:55.232Z,3.45
2022-08-26T13:17:42.732Z,3.80
2022-08-26T13:20:32.352Z,4.47
2022-08-26T13:23:23.363Z,4.45
2022-08-26T13:26:11.668Z,4.57
2022-08-26T13:29:02.001Z,3.88
2022-08-26T13:31:50.796Z,4.05
2022-08-26T13:34:38.781Z,4.80
2022-08-26T13:37:35.217Z,4.80
2022-08-26T13:40:23.060Z,4.07
2022-08-26T13:43:11.889Z,4.85
2022-08-26T13:46:01.319Z,4.45
2022-08-26T13:48:48.882Z,4.10
2022-08-26T13:51:38.204Z,3.60
2022-08-26T13:54:25.775Z,3.55
2022-08-26T13:57:13.332Z,3.65
2022-08-26T14:00:01.093Z,3.60
2022-08-26T14:02:49.194Z,3.55
2022-08-26T14:05:36.837Z,3.50
2022-08-26T14:08:24.819Z,3.17
2022-08-26T14:11:12.737Z,2.67
2022-08-26T14:14:00.232Z,3.35
2022-08-26T14:16:59.635Z,3.13
2022-08-26T14:19:50.478Z,3.25
2022-08-26T14:22:52.114Z,3.28
2022-08-26T14:25:50.162Z,2.90
2022-08-26T14:28:38.617Z,3.63
2022-08-26T14:31:29.531Z,3.22
2022-08-26T14:34:17.353Z,3.92
2022-08-26T14:37:08.200Z,3.63
2022-08-26T14:39:56.888Z,3.75
2022-08-26T14:42:53.850Z,3.60
2022-08-26T14:45:45.224Z,4.13
2022-08-26T14:48:32.782Z,4.07
2022-08-26T14:51:21.776Z,4.78
2022-08-26T14:54:14.975Z,4.15
2022-08-26T14:57:07.246Z,3.78
2022-08-26T14:59:54.753Z,4.50
2022-08-26T15:02:42.613Z,4.07
2022-08-26T15:05:30.590Z,3.78
2022-08-26T15:08:18.811Z,3.17
2022-08-26T15:11:06.423Z,3.60
2022-08-26T15:13:54.728Z,3.60
2022-08-26T15:16:44.118Z,3.70
2022-08-26T15:19:31.793Z,3.90
2022-08-26T15:22:19.368Z,3.80
2022-08-26T15:25:07.797Z,4.30
2022-08-26T15:27:55.313Z,4.90
2022-08-26T15:30:43.313Z,3.70
2022-08-26T15:33:30.892Z,3.38
2022-08-26T15:36:18.923Z,4.10
2022-08-26T15:39:08.112Z,3.70
2022-08-26T15:41:56.773Z,4.20
2022-08-26T15:44:46.038Z,3.78
2022-08-26T15:47:35.521Z,3.80
2022-08-26T15:50:56.453Z,3.92
2022-08-26T15:53:45.594Z,4.05
2022-08-26T15:56:36.932Z,3.70
2022-08-26T15:59:24.493Z,4.22
2022-08-26T16:02:12.069Z,3.22
2022-08-26T16:05:00.334Z,4.07
2022-08-26T16:07:48.628Z,4.20
2022-08-26T16:10:39.702Z,3.38
2022-08-26T16:13:28.867Z,4.00
2022-08-26T16:16:27.480Z,3.65
2022-08-26T16:19:15.754Z,4.55
2022-08-26T16:22:03.492Z,3.95
2022-08-26T16:24:51.092Z,3.92
2022-08-26T16:27:38.617Z,3.42
2022-08-26T16:30:27.581Z,3.65
2022-08-26T16:33:28.893Z,4.30
2022-08-26T16:36:17.474Z,3.88
2022-08-26T16:39:07.968Z,3.63
2022-08-26T16:41:55.487Z,3.63
2022-08-26T16:44:45.947Z,3.75
2022-08-26T16:47:34.257Z,4.20
2022-08-26T16:50:23.988Z,3.40
2022-08-26T16:56:04.488Z,3.40
2022-08-26T16:58:54.287Z,3.13
2022-08-26T17:01:41.803Z,3.85
2022-08-26T17:04:29.976Z,3.03
2022-08-26T17:07:17.637Z,3.75
2022-08-26T17:10:07.667Z,3.85
2022-08-26T17:12:55.707Z,2.65
2022-08-26T17:15:54.034Z,3.75
2022-08-26T17:18:46.191Z,3.65
2022-08-26T17:21:36.405Z,3.17
2022-08-26T17:24:23.912Z,3.50
2022-08-26T17:27:11.857Z,3.10
2022-08-26T17:29:59.712Z,3.38
2022-08-26T17:32:48.509Z,3.78
2022-08-26T17:35:36.468Z,14.15
2022-08-26T17:38:24.752Z,44.97
2022-08-26T17:41:16.634Z,24.10
2022-08-26T17:44:06.071Z,18.67
2022-08-26T17:46:53.651Z,5.93
2022-08-26T17:49:41.653Z,7.82
2022-08-26T17:52:30.516Z,7.20
2022-08-26T17:55:19.147Z,7.18
2022-08-26T17:58:07.229Z,18.67
2022-08-26T18:00:55.028Z,12.98
2022-08-26T18:03:42.952Z,14.75
2022-08-26T18:06:31.270Z,50.53
2022-08-26T18:09:18.799Z,15.68
2022-08-26T18:12:06.917Z,16.90
2022-08-26T18:14:54.373Z,11.43
2022-08-26T18:17:43.213Z,8.35
2022-08-26T18:20:30.724Z,6.47
2022-08-26T18:23:18.188Z,6.18
2022-08-26T18:26:05.831Z,5.32
2022-08-26T18:28:54.097Z,5.90
2022-08-26T18:31:42.173Z,6.13
2022-08-26T18:34:31.717Z,6.25
2022-08-26T18:37:19.578Z,6.75
2022-08-26T18:40:11.337Z,9.73
2022-08-26T18:42:58.872Z,7.00
2022-08-26T18:45:46.993Z,13.45
2022-08-26T18:48:35.337Z,7.18
2022-08-26T18:51:29.702Z,6.93
2022-08-26T18:54:17.598Z,7.32
2022-08-26T18:57:05.477Z,7.75
2022-08-26T18:59:55.150Z,9.60
2022-08-26T19:02:42.753Z,8.85
2022-08-26T19:05:40.368Z,9.07
2022-08-26T19:08:27.913Z,10.23
2022-08-26T19:11:16.469Z,10.60
2022-08-26T19:14:09.693Z,10.30
2022-08-26T19:16:57.551Z,8.25
2022-08-26T19:19:45.548Z,14.45
2022-08-26T19:22:33.298Z,10.73
2022-08-26T19:25:20.923Z,15.52
2022-08-26T19:28:08.568Z,11.88
2022-08-26T19:30:56.207Z,12.00
2022-08-26T19:33:45.868Z,13.15
2022-08-26T19:36:34.308Z,10.77
2022-08-26T19:39:22.185Z,9.80
2022-08-26T19:42:09.673Z,14.35
2022-08-26T19:45:20.253Z,11.85
2022-08-26T19:48:12.933Z,9.07
2022-08-26T19:51:00.482Z,9.07
2022-08-26T19:53:49.213Z,8.48
2022-08-26T19:56:36.776Z,8.25
2022-08-26T19:59:24.509Z,10.60
2022-08-26T20:02:12.292Z,7.90
2022-08-26T20:04:59.958Z,8.45
2022-08-26T20:07:49.448Z,6.35
2022-08-26T20:10:37.214Z,5.15
2022-08-26T20:13:24.902Z,3.85
2022-08-26T20:16:12.845Z,5.15
2022-08-26T20:19:19.233Z,4.28
2022-08-26T20:22:07.768Z,4.38
2022-08-26T20:24:55.658Z,5.45
2022-08-26T20:27:43.628Z,7.72
2022-08-26T20:30:31.209Z,5.35
2022-08-26T20:33:19.677Z,4.50
2022-08-26T20:36:10.244Z,4.53
2022-08-26T20:38:58.349Z,6.13
2022-08-26T20:41:45.898Z,5.68
2022-08-26T20:44:34.131Z,7.13
2022-08-26T20:47:22.152Z,6.03
2022-08-26T20:50:09.923Z,5.70
2022-08-26T20:52:57.432Z,6.20
2022-08-26T20:55:45.028Z,7.55
2022-08-26T20:58:32.633Z,6.57
2022-08-26T21:01:25.733Z,7.72
2022-08-26T21:04:18.643Z,6.47
2022-08-26T21:07:06.168Z,6.90
2022-08-26T21:09:53.678Z,6.35
2022-08-26T21:12:41.173Z,6.20
2022-08-26T21:15:29.553Z,5.85
2022-08-26T21:18:18.948Z,5.88
2022-08-26T21:21:10.606Z,5.43
2022-08-26T21:23:58.557Z,4.75
2022-08-26T21:26:46.743Z,4.78
2022-08-26T21:29:34.297Z,4.00
2022-08-26T21:32:21.912Z,5.38
2022-08-26T21:35:10.645Z,3.75
2022-08-26T21:37:58.170Z,3.33
2022-08-26T21:40:45.878Z,3.60
2022-08-26T21:43:35.534Z,3.40
2022-08-26T21:46:26.147Z,3.72
2022-08-26T21:49:16.038Z,3.80
2022-08-26T21:52:04.868Z,4.45
2022-08-26T21:54:58.648Z,3.97
2022-08-26T21:57:46.152Z,4.25
2022-08-26T22:00:33.656Z,4.32
2022-08-26T22:03:21.188Z,3.47
2022-08-26T22:06:08.941Z,4.38
2022-08-26T22:08:57.078Z,4.03
2022-08-26T22:11:45.880Z,3.85
2022-08-26T22:14:33.413Z,3.53
2022-08-26T22:17:22.554Z,4.38
2022-08-26T22:20:16.572Z,4.50
2022-08-26T22:23:05.537Z,3.97
2022-08-26T22:25:54.973Z,3.63
2022-08-26T22:28:42.557Z,4.43
2022-08-26T22:31:38.097Z,3.90
2022-08-26T22:34:26.368Z,3.85
2022-08-26T22:37:14.032Z,3.72
2022-08-26T22:40:01.600Z,3.80
2022-08-26T22:42:57.969Z,3.53
2022-08-26T22:45:49.439Z,3.90
2022-08-26T22:48:38.537Z,4.30
2022-08-26T22:51:26.282Z,4.28
2022-08-26T22:54:15.219Z,4.55
2022-08-26T22:57:02.777Z,3.63
2022-08-26T22:59:50.367Z,3.85
2022-08-26T23:02:38.508Z,3.97
2022-08-26T23:05:26.093Z,4.10
2022-08-26T23:08:15.023Z,3.70
2022-08-26T23:11:03.357Z,4.25
2022-08-26T23:13:50.918Z,4.03
2022-08-26T23:16:44.304Z,4.35
2022-08-26T23:19:31.852Z,4.40
2022-08-26T23:22:19.433Z,4.75
2022-08-26T23:25:10.662Z,3.75
2022-08-26T23:28:01.077Z,4.63
2022-08-26T23:30:49.840Z,4.10
2022-08-26T23:33:56.128Z,4.30
2022-08-26T23:36:45.802Z,4.45
2022-08-26T23:39:36.313Z,4.53
2022-08-26T23:42:24.542Z,4.65
2022-08-26T23:45:18.458Z,4.20
2022-08-26T23:48:06.965Z,5.25
2022-08-26T23:51:13.400Z,4.72
2022-08-26T23:54:01.053Z,4.30
2022-08-26T23:56:48.733Z,4.75
2022-08-26T23:59:39.183Z,4.20
